createdAt,value
2019-02-25T00:01:59.317Z,45.46
2019-02-25T00:04:29.691Z,45.39
2019-02-25T00:06:59.983Z,45.45
2019-02-25T00:09:30.334Z,45.43
2019-02-25T00:12:00.932Z,45.40
2019-02-25T00:14:31.436Z,45.46
2019-02-25T00:17:01.965Z,45.37
2019-02-25T00:19:32.434Z,45.34
2019-02-25T00:22:02.825Z,45.34
2019-02-25T00:24:33.073Z,45.20
2019-02-25T00:27:04.858Z,45.19
2019-02-25T00:29:35.493Z,45.30
2019-02-25T00:32:05.978Z,45.46
2019-02-25T00:34:36.434Z,45.83
2019-02-25T00:37:06.784Z,45.65
2019-02-25T00:39:37.160Z,45.48
2019-02-25T00:42:07.611Z,45.23
2019-02-25T00:44:37.801Z,45.05
2019-02-25T00:47:08.431Z,44.91
2019-02-25T00:49:38.664Z,44.72
2019-02-25T00:52:09.226Z,44.42
2019-02-25T00:54:39.535Z,44.11
2019-02-25T00:57:10.023Z,43.97
2019-02-25T00:59:40.583Z,43.81
2019-02-25T01:02:10.945Z,43.76
2019-02-25T01:04:41.491Z,43.86
2019-02-25T01:07:11.749Z,43.97
2019-02-25T01:09:42.071Z,43.96
2019-02-25T01:12:12.420Z,43.91
2019-02-25T01:14:42.571Z,43.73
2019-02-25T01:17:12.906Z,43.60
2019-02-25T01:19:43.410Z,43.60
2019-02-25T01:22:15.282Z,43.64
2019-02-25T01:24:45.492Z,43.67
2019-02-25T01:27:15.926Z,43.76
2019-02-25T01:29:46.226Z,43.68
2019-02-25T01:32:16.392Z,44.00
2019-02-25T01:34:46.659Z,44.03
2019-02-25T01:37:16.966Z,43.95
2019-02-25T01:39:47.308Z,44.24
2019-02-25T01:42:18.087Z,44.41
2019-02-25T01:44:48.396Z,44.70
2019-02-25T01:47:18.631Z,44.72
2019-02-25T01:49:48.870Z,44.87
2019-02-25T01:52:19.420Z,45.10
2019-02-25T01:54:49.561Z,45.27
2019-02-25T01:57:19.941Z,45.38
2019-02-25T01:59:50.090Z,45.31
2019-02-25T02:02:20.377Z,45.35
2019-02-25T02:04:50.701Z,45.37
2019-02-25T02:07:20.982Z,45.70
2019-02-25T02:09:51.194Z,45.68
2019-02-25T02:12:21.574Z,45.70
2019-02-25T02:14:51.854Z,45.98
2019-02-25T02:17:22.166Z,45.97
2019-02-25T02:19:53.115Z,46.12
2019-02-25T02:22:23.612Z,46.18
2019-02-25T02:24:53.841Z,46.17
2019-02-25T02:27:25.576Z,46.22
2019-02-25T02:29:55.909Z,46.19
2019-02-25T02:32:26.334Z,46.02
2019-02-25T02:34:56.663Z,46.02
2019-02-25T02:37:26.878Z,46.03
2019-02-25T02:39:57.227Z,46.24
2019-02-25T02:42:27.383Z,46.17
2019-02-25T02:45:03.070Z,46.28
2019-02-25T02:47:49.770Z,46.19
2019-02-25T02:50:22.910Z,45.96
2019-02-25T02:52:53.301Z,45.96
2019-02-25T02:55:23.473Z,46.06
2019-02-25T02:57:53.729Z,45.97
2019-02-25T03:00:24.040Z,46.10
2019-02-25T03:02:54.504Z,45.89
2019-02-25T03:05:24.800Z,45.91
2019-02-25T03:07:55.206Z,46.00
2019-02-25T03:10:25.730Z,46.13
2019-02-25T03:12:56.351Z,46.23
2019-02-25T03:15:26.732Z,46.43
2019-02-25T03:17:57.450Z,46.48
2019-02-25T03:20:27.754Z,46.62
2019-02-25T03:22:58.115Z,46.88
2019-02-25T03:25:28.492Z,47.05
2019-02-25T03:27:58.925Z,47.52
2019-02-25T03:30:29.390Z,47.99
2019-02-25T03:32:59.878Z,48.31
2019-02-25T03:35:30.149Z,48.34
2019-02-25T03:38:00.756Z,48.16
2019-02-25T03:40:31.066Z,48.06
2019-02-25T03:43:01.698Z,48.19
2019-02-25T03:45:32.164Z,48.35
2019-02-25T03:48:02.570Z,48.34
2019-02-25T03:50:33.441Z,48.34
2019-02-25T03:53:03.856Z,48.39
2019-02-25T03:55:34.150Z,48.28
2019-02-25T03:58:04.798Z,48.35
2019-02-25T04:00:35.061Z,48.45
2019-02-25T04:05:34.456Z,48.41
2019-02-25T04:08:04.792Z,48.58
2019-02-25T04:10:35.083Z,48.97
2019-02-25T04:13:05.442Z,49.40
2019-02-25T04:15:39.080Z,49.47
2019-02-25T04:18:09.327Z,49.42
2019-02-25T04:20:39.564Z,49.40
2019-02-25T04:23:10.066Z,49.40
2019-02-25T04:25:40.404Z,49.37
2019-02-25T04:28:10.827Z,49.67
2019-02-25T04:30:41.135Z,50.13
2019-02-25T04:33:11.404Z,50.15
2019-02-25T04:35:41.766Z,50.32
2019-02-25T04:38:12.293Z,50.51
2019-02-25T04:40:42.761Z,50.79
2019-02-25T04:43:13.080Z,50.71
2019-02-25T04:45:43.395Z,50.46
2019-02-25T04:48:13.588Z,50.42
2019-02-25T04:50:43.921Z,50.42
2019-02-25T04:53:14.277Z,50.51
2019-02-25T04:55:44.531Z,50.56
2019-02-25T04:58:15.317Z,50.56
2019-02-25T05:00:45.725Z,50.44
2019-02-25T05:03:16.012Z,50.47
2019-02-25T05:05:46.463Z,50.71
2019-02-25T05:08:16.729Z,51.03
2019-02-25T05:10:58.012Z,51.41
2019-02-25T05:13:32.706Z,51.50
2019-02-25T05:16:04.064Z,51.67
2019-02-25T05:18:34.428Z,51.64
2019-02-25T05:21:04.956Z,51.38
2019-02-25T05:23:35.396Z,51.13
2019-02-25T05:26:05.744Z,51.15
2019-02-25T05:28:36.075Z,51.40
2019-02-25T05:31:06.404Z,51.70
2019-02-25T05:33:37.001Z,51.60
2019-02-25T05:36:10.298Z,51.81
2019-02-25T05:38:41.046Z,52.05
2019-02-25T05:41:11.766Z,52.25
2019-02-25T05:43:42.094Z,52.35
2019-02-25T05:46:13.143Z,52.50
2019-02-25T05:48:43.530Z,52.36
2019-02-25T05:51:13.865Z,51.98
2019-02-25T05:53:44.288Z,51.79
2019-02-25T05:56:14.810Z,51.71
2019-02-25T05:58:44.967Z,51.97
2019-02-25T06:01:15.324Z,51.89
2019-02-25T06:03:45.830Z,51.76
2019-02-25T06:06:16.295Z,51.64
2019-02-25T06:08:47.771Z,51.67
2019-02-25T06:11:18.160Z,51.68
2019-02-25T06:13:48.533Z,51.68
2019-02-25T06:16:18.835Z,51.35
2019-02-25T06:18:49.005Z,51.54
2019-02-25T06:21:19.607Z,51.46
2019-02-25T06:23:51.613Z,51.90
2019-02-25T06:26:23.073Z,52.38
2019-02-25T06:28:53.412Z,52.69
2019-02-25T06:31:23.853Z,52.91
2019-02-25T06:33:54.192Z,53.03
2019-02-25T06:36:25.428Z,53.02
2019-02-25T06:38:57.698Z,53.04
2019-02-25T06:41:28.827Z,52.88
2019-02-25T06:43:59.354Z,52.86
2019-02-25T06:46:29.767Z,53.07
2019-02-25T06:49:00.086Z,52.98
2019-02-25T06:51:30.415Z,52.89
2019-02-25T06:54:01.048Z,52.46
2019-02-25T06:56:31.387Z,52.16
2019-02-25T06:59:01.871Z,51.93
2019-02-25T07:01:32.693Z,51.53
2019-02-25T07:04:37.186Z,51.20
2019-02-25T07:07:20.900Z,50.90
2019-02-25T07:10:03.946Z,50.66
2019-02-25T07:13:01.989Z,50.68
2019-02-25T07:15:42.717Z,50.90
2019-02-25T07:18:39.439Z,51.00
2019-02-25T07:21:21.213Z,50.99
2019-02-25T07:24:10.583Z,51.20
2019-02-25T07:26:49.701Z,51.01
2019-02-25T07:29:32.445Z,51.00
2019-02-25T07:32:21.547Z,51.43
2019-02-25T07:35:16.611Z,51.52
2019-02-25T07:38:05.690Z,51.17
2019-02-25T07:40:53.487Z,50.88
2019-02-25T07:43:31.715Z,50.60
2019-02-25T07:46:24.066Z,50.75
2019-02-25T07:49:15.977Z,50.55
2019-02-25T07:51:56.092Z,50.36
2019-02-25T07:54:51.698Z,50.02
2019-02-25T07:57:32.238Z,50.06
2019-02-25T08:00:19.911Z,50.40
2019-02-25T08:03:09.517Z,50.20
2019-02-25T08:05:55.425Z,50.19
2019-02-25T08:08:54.003Z,49.81
2019-02-25T08:11:43.193Z,49.46
2019-02-25T08:14:32.383Z,49.20
2019-02-25T08:17:21.868Z,48.88
2019-02-25T08:20:06.068Z,48.26
2019-02-25T08:22:59.540Z,48.18
2019-02-25T08:26:00.302Z,47.93
2019-02-25T08:28:52.633Z,47.69
2019-02-25T08:31:31.225Z,47.26
2019-02-25T08:34:18.743Z,46.84
2019-02-25T08:37:36.804Z,46.46
2019-02-25T08:41:04.782Z,46.06
2019-02-25T08:43:53.501Z,46.11
2019-02-25T08:46:47.153Z,45.92
2019-02-25T08:49:30.364Z,45.70
2019-02-25T08:52:00.993Z,45.67
2019-02-25T08:54:31.422Z,45.66
2019-02-25T08:57:03.588Z,45.43
2019-02-25T08:59:33.957Z,45.20
2019-02-25T09:02:08.723Z,44.98
2019-02-25T09:04:39.067Z,44.76
2019-02-25T09:07:09.479Z,44.36
2019-02-25T09:09:40.248Z,44.19
2019-02-25T09:12:13.728Z,43.92
2019-02-25T09:14:48.391Z,44.03
2019-02-25T09:17:21.938Z,43.99
2019-02-25T09:19:53.685Z,43.87
2019-02-25T09:22:26.124Z,43.76
2019-02-25T09:25:00.552Z,43.66
2019-02-25T09:27:30.760Z,43.47
2019-02-25T09:30:01.164Z,44.03
2019-02-25T09:32:31.898Z,43.14
2019-02-25T09:35:03.038Z,43.49
2019-02-25T09:37:33.779Z,43.49
2019-02-25T09:40:05.038Z,42.99
2019-02-25T09:42:35.377Z,43.05
2019-02-25T09:45:10.758Z,42.89
2019-02-25T09:47:41.638Z,42.61
2019-02-25T09:50:17.968Z,42.32
2019-02-25T09:52:50.431Z,41.52
2019-02-25T09:55:20.804Z,41.10
2019-02-25T09:57:51.031Z,41.09
2019-02-25T10:00:22.803Z,41.18
2019-02-25T10:02:53.988Z,41.13
2019-02-25T10:05:24.699Z,40.71
2019-02-25T10:07:55.432Z,40.56
2019-02-25T10:10:26.082Z,40.42
2019-02-25T10:12:56.625Z,40.37
2019-02-25T10:15:27.359Z,39.92
2019-02-25T10:18:00.284Z,39.91
2019-02-25T10:20:31.254Z,39.99
2019-02-25T10:23:02.072Z,40.03
2019-02-25T10:25:33.772Z,40.45
2019-02-25T10:28:04.182Z,40.45
2019-02-25T10:30:35.358Z,40.49
2019-02-25T10:33:06.044Z,40.56
2019-02-25T10:35:36.482Z,40.80
2019-02-25T10:38:07.562Z,41.04
2019-02-25T10:40:38.165Z,41.26
2019-02-25T10:43:08.851Z,41.61
2019-02-25T10:45:41.563Z,41.23
2019-02-25T10:48:12.824Z,40.48
2019-02-25T10:50:43.488Z,40.55
2019-02-25T10:53:15.587Z,39.67
2019-02-25T10:55:53.131Z,38.98
2019-02-25T10:58:25.178Z,38.65
2019-02-25T11:00:56.014Z,38.88
2019-02-25T11:03:26.243Z,39.21
2019-02-25T11:06:00.861Z,38.94
2019-02-25T11:08:35.279Z,38.81
2019-02-25T11:11:13.653Z,38.48
2019-02-25T11:13:44.350Z,38.22
2019-02-25T11:16:16.461Z,37.72
2019-02-25T11:18:46.863Z,37.43
2019-02-25T11:21:18.384Z,37.37
2019-02-25T11:23:49.546Z,36.94
2019-02-25T11:26:21.499Z,36.80
2019-02-25T11:28:52.292Z,36.42
2019-02-25T11:31:26.815Z,36.16
2019-02-25T11:34:03.219Z,35.79
2019-02-25T11:36:34.446Z,35.62
2019-02-25T11:39:09.488Z,35.63
2019-02-25T11:41:41.095Z,35.24
2019-02-25T11:44:12.115Z,34.86
2019-02-25T11:46:42.725Z,34.56
2019-02-25T11:49:13.134Z,34.30
2019-02-25T11:51:43.481Z,33.95
2019-02-25T11:54:18.347Z,33.67
2019-02-25T11:56:48.721Z,33.46
2019-02-25T11:59:20.537Z,33.36
2019-02-25T12:01:50.870Z,32.94
2019-02-25T12:04:48.350Z,32.81
2019-02-25T12:07:19.130Z,32.40
2019-02-25T12:09:49.418Z,32.51
2019-02-25T12:12:19.723Z,32.21
2019-02-25T12:14:50.371Z,32.17
2019-02-25T12:17:21.801Z,32.14
2019-02-25T12:19:52.321Z,31.79
2019-02-25T12:22:23.350Z,31.33
2019-02-25T12:24:53.742Z,31.15
2019-02-25T12:27:28.008Z,30.89
2019-02-25T12:29:58.259Z,30.69
2019-02-25T12:32:28.703Z,30.59
2019-02-25T12:35:03.220Z,29.72
2019-02-25T12:37:33.729Z,29.60
2019-02-25T12:40:10.375Z,29.27
2019-02-25T12:42:40.864Z,29.11
2019-02-25T12:45:11.351Z,28.75
2019-02-25T12:47:43.054Z,29.02
2019-02-25T12:50:13.749Z,29.30
2019-02-25T12:52:44.222Z,29.32
2019-02-25T12:55:16.288Z,29.15
2019-02-25T12:57:48.013Z,29.00
2019-02-25T13:00:19.619Z,29.21
2019-02-25T13:02:51.761Z,29.08
2019-02-25T13:05:22.134Z,28.93
2019-02-25T13:07:52.422Z,28.28
2019-02-25T13:10:22.959Z,27.88
2019-02-25T13:12:53.891Z,27.85
2019-02-25T13:15:24.422Z,27.84
2019-02-25T13:17:54.766Z,28.09
2019-02-25T13:20:27.072Z,28.16
2019-02-25T13:22:57.329Z,28.23
2019-02-25T13:25:30.526Z,28.33
2019-02-25T13:30:30.584Z,28.56
2019-02-25T13:33:00.940Z,28.69
2019-02-25T13:35:31.675Z,28.89
2019-02-25T13:38:02.817Z,29.06
2019-02-25T13:40:33.425Z,29.26
2019-02-25T13:43:03.850Z,29.15
2019-02-25T13:45:34.598Z,29.07
2019-02-25T13:48:05.767Z,28.98
2019-02-25T13:50:36.416Z,28.91
2019-02-25T13:53:07.779Z,28.81
2019-02-25T13:55:38.377Z,28.83
2019-02-25T13:58:09.019Z,28.79
2019-02-25T14:00:41.582Z,28.96
2019-02-25T14:03:12.278Z,29.00
2019-02-25T14:05:47.973Z,28.96
2019-02-25T14:08:18.458Z,29.07
2019-02-25T14:10:49.129Z,29.49
2019-02-25T14:13:19.777Z,29.60
2019-02-25T14:15:50.672Z,29.72
2019-02-25T14:18:21.521Z,29.85
2019-02-25T14:20:54.837Z,30.16
2019-02-25T14:23:25.847Z,30.51
2019-02-25T14:25:57.278Z,30.60
2019-02-25T14:28:30.146Z,30.83
2019-02-25T14:31:00.781Z,31.00
2019-02-25T14:33:35.645Z,31.09
2019-02-25T14:36:03.976Z,31.25
2019-02-25T14:38:38.891Z,31.38
2019-02-25T14:41:11.709Z,31.48
2019-02-25T14:43:47.099Z,31.57
2019-02-25T14:46:21.828Z,31.76
2019-02-25T14:48:53.070Z,31.83
2019-02-25T14:51:27.766Z,31.86
2019-02-25T14:53:59.626Z,31.79
2019-02-25T14:56:30.261Z,31.81
2019-02-25T14:59:05.554Z,32.26
2019-02-25T15:01:33.943Z,32.25
2019-02-25T15:04:06.414Z,32.07
2019-02-25T15:06:38.469Z,32.07
2019-02-25T15:09:12.509Z,31.96
2019-02-25T15:11:43.213Z,31.71
2019-02-25T15:14:15.005Z,31.28
2019-02-25T15:16:46.007Z,31.11
2019-02-25T15:19:16.548Z,30.82
2019-02-25T15:21:49.886Z,30.90
2019-02-25T15:24:20.359Z,31.07
2019-02-25T15:26:50.901Z,31.91
2019-02-25T15:29:22.910Z,32.20
2019-02-25T15:31:55.187Z,32.22
2019-02-25T15:34:27.250Z,32.56
2019-02-25T15:37:00.544Z,32.51
2019-02-25T15:39:30.983Z,32.85
2019-02-25T15:42:05.329Z,32.56
2019-02-25T15:44:36.982Z,32.64
2019-02-25T15:47:10.672Z,33.38
2019-02-25T15:49:43.693Z,33.49
2019-02-25T15:52:16.968Z,33.78
2019-02-25T15:54:47.721Z,34.18
2019-02-25T15:57:22.565Z,34.70
2019-02-25T15:59:59.005Z,35.16
2019-02-25T16:02:32.574Z,35.46
2019-02-25T16:05:11.476Z,35.78
2019-02-25T16:07:44.959Z,35.28
2019-02-25T16:10:16.690Z,36.22
2019-02-25T16:12:48.280Z,36.72
2019-02-25T16:15:21.037Z,37.07
2019-02-25T16:17:53.694Z,37.30
2019-02-25T16:20:25.571Z,37.97
2019-02-25T16:22:58.376Z,38.49
2019-02-25T16:25:32.179Z,38.36
2019-02-25T16:28:08.048Z,39.57
2019-02-25T16:30:42.453Z,40.24
2019-02-25T16:33:14.519Z,40.42
2019-02-25T16:35:47.383Z,40.74
2019-02-25T16:38:23.042Z,41.05
2019-02-25T16:40:50.371Z,41.30
2019-02-25T16:43:21.219Z,41.58
2019-02-25T16:45:55.007Z,41.78
2019-02-25T16:48:34.851Z,41.95
2019-02-25T16:53:38.682Z,43.11
2019-02-25T16:56:07.877Z,43.29
2019-02-25T16:58:39.096Z,43.81
2019-02-25T17:01:12.560Z,44.25
2019-02-25T17:03:43.815Z,44.85
2019-02-25T17:06:18.203Z,45.00
2019-02-25T17:08:48.854Z,45.21
2019-02-25T17:11:21.889Z,45.40
2019-02-25T17:13:53.098Z,45.64
2019-02-25T17:16:24.452Z,45.93
2019-02-25T17:18:54.952Z,46.16
2019-02-25T17:21:28.760Z,46.45
2019-02-25T17:24:00.665Z,46.78
2019-02-25T17:26:31.627Z,47.21
2019-02-25T17:29:02.639Z,47.73
2019-02-25T17:31:34.533Z,47.96
2019-02-25T17:34:05.985Z,48.34
2019-02-25T17:36:36.762Z,48.77
2019-02-25T17:39:09.076Z,48.90
2019-02-25T17:41:42.522Z,48.99
2019-02-25T17:44:17.861Z,49.14
2019-02-25T17:46:49.337Z,49.20
2019-02-25T17:49:20.053Z,49.53
2019-02-25T17:51:51.294Z,49.71
2019-02-25T17:54:26.235Z,49.82
2019-02-25T17:56:57.439Z,50.15
2019-02-25T17:59:29.419Z,50.43
2019-02-25T18:02:01.765Z,50.72
2019-02-25T18:04:34.714Z,51.10
2019-02-25T18:07:05.872Z,51.35
2019-02-25T18:09:38.035Z,51.67
2019-02-25T18:12:10.744Z,51.96
2019-02-25T18:14:43.095Z,51.96
2019-02-25T18:17:17.474Z,52.30
2019-02-25T18:19:50.154Z,52.22
2019-02-25T18:22:20.971Z,52.30
2019-02-25T18:24:51.948Z,52.23
2019-02-25T18:27:22.502Z,52.08
2019-02-25T18:29:54.811Z,52.00
2019-02-25T18:32:30.475Z,51.91
2019-02-25T18:35:00.740Z,51.58
2019-02-25T18:37:32.712Z,51.64
2019-02-25T18:40:03.783Z,51.64
2019-02-25T18:42:36.475Z,51.49
2019-02-25T18:45:13.672Z,51.39
2019-02-25T18:47:46.314Z,51.52
2019-02-25T18:50:19.931Z,51.59
2019-02-25T18:52:52.906Z,51.65
2019-02-25T18:55:26.668Z,51.70
2019-02-25T18:57:57.546Z,51.78
2019-02-25T19:00:34.921Z,51.76
2019-02-25T19:03:06.246Z,51.80
2019-02-25T19:05:36.794Z,51.84
2019-02-25T19:08:17.180Z,51.85
2019-02-25T19:10:50.335Z,51.91
2019-02-25T19:13:23.354Z,51.88
2019-02-25T19:15:55.310Z,52.07
2019-02-25T19:18:29.416Z,52.25
2019-02-25T19:21:02.488Z,52.38
2019-02-25T19:23:35.431Z,52.56
2019-02-25T19:26:10.474Z,52.64
2019-02-25T19:28:44.076Z,52.80
2019-02-25T19:31:12.552Z,53.04
2019-02-25T19:33:44.540Z,52.98
2019-02-25T19:36:16.712Z,53.00
2019-02-25T19:38:50.291Z,53.26
2019-02-25T19:41:22.415Z,53.16
2019-02-25T19:43:58.859Z,53.28
2019-02-25T19:46:23.032Z,53.33
2019-02-25T19:48:54.174Z,53.34
2019-02-25T19:51:27.443Z,53.60
2019-02-25T19:53:59.881Z,53.86
2019-02-25T19:56:31.429Z,53.85
2019-02-25T19:59:03.743Z,53.86
2019-02-25T20:01:34.574Z,53.96
2019-02-25T20:04:07.042Z,54.01
2019-02-25T20:06:38.235Z,54.22
2019-02-25T20:09:09.169Z,54.41
2019-02-25T20:11:42.759Z,54.54
2019-02-25T20:14:16.593Z,54.58
2019-02-25T20:16:46.323Z,54.91
2019-02-25T20:19:17.018Z,54.99
2019-02-25T20:21:48.261Z,54.82
2019-02-25T20:24:21.646Z,54.90
2019-02-25T20:26:57.213Z,54.91
2019-02-25T20:29:25.290Z,55.03
2019-02-25T20:32:01.047Z,55.23
2019-02-25T20:34:34.710Z,55.38
2019-02-25T20:37:04.646Z,55.38
2019-02-25T20:39:36.002Z,55.60
2019-02-25T20:42:08.271Z,55.67
2019-02-25T20:44:40.260Z,55.67
2019-02-25T20:47:10.806Z,56.07
2019-02-25T20:49:41.180Z,56.49
2019-02-25T20:52:13.393Z,56.26
2019-02-25T20:54:45.954Z,56.06
2019-02-25T20:57:18.636Z,56.06
2019-02-25T20:59:51.082Z,56.26
2019-02-25T21:02:21.683Z,56.70
2019-02-25T21:04:53.977Z,56.70
2019-02-25T21:07:27.446Z,56.29
2019-02-25T21:10:07.673Z,57.06
2019-02-25T21:12:39.786Z,57.13
2019-02-25T21:15:12.295Z,57.13
2019-02-25T21:17:42.885Z,56.99
2019-02-25T21:20:14.623Z,56.93
2019-02-25T21:22:45.179Z,56.81
2019-02-25T21:25:15.591Z,56.88
2019-02-25T21:27:46.192Z,57.23
2019-02-25T21:30:17.207Z,57.23
2019-02-25T21:32:49.656Z,57.67
2019-02-25T21:35:23.485Z,58.05
2019-02-25T21:37:54.594Z,57.98
2019-02-25T21:40:27.735Z,58.08
2019-02-25T21:42:57.183Z,58.11
2019-02-25T21:45:32.101Z,58.11
2019-02-25T21:48:04.188Z,57.99
2019-02-25T21:50:35.892Z,58.18
2019-02-25T21:53:07.505Z,58.38
2019-02-25T21:55:39.419Z,58.38
2019-02-25T21:58:09.622Z,58.31
2019-02-25T22:00:41.622Z,58.38
2019-02-25T22:03:13.182Z,58.28
2019-02-25T22:05:44.166Z,58.53
2019-02-25T22:08:14.848Z,58.74
2019-02-25T22:10:45.835Z,58.65
2019-02-25T22:13:18.328Z,58.75
2019-02-25T22:15:48.835Z,58.81
2019-02-25T22:18:19.150Z,58.94
2019-02-25T22:20:51.427Z,59.02
2019-02-25T22:23:25.830Z,59.14
2019-02-25T22:25:54.596Z,59.34
2019-02-25T22:28:25.017Z,59.34
2019-02-25T22:30:55.738Z,59.39
2019-02-25T22:33:27.904Z,59.33
2019-02-25T22:35:58.373Z,59.34
2019-02-25T22:38:28.747Z,59.44
2019-02-25T22:41:00.397Z,59.63
2019-02-25T22:43:31.638Z,59.63
2019-02-25T22:46:03.050Z,59.68
2019-02-25T22:48:35.716Z,59.63
2019-02-25T22:51:07.041Z,59.74
2019-02-25T22:53:37.841Z,59.74
2019-02-25T22:56:11.531Z,59.61
2019-02-25T22:58:42.765Z,59.73
2019-02-25T23:01:19.502Z,59.60
2019-02-25T23:03:52.717Z,59.46
2019-02-25T23:06:23.615Z,59.49
2019-02-25T23:08:55.649Z,59.58
2019-02-25T23:11:26.211Z,59.94
2019-02-25T23:13:56.681Z,60.00
2019-02-25T23:16:30.142Z,60.28
2019-02-25T23:19:02.161Z,60.34
2019-02-25T23:21:36.159Z,60.38
2019-02-25T23:24:07.725Z,60.67
2019-02-25T23:26:38.210Z,60.75
2019-02-25T23:29:08.980Z,60.63
2019-02-25T23:31:39.275Z,61.01
2019-02-25T23:34:10.792Z,61.25
2019-02-25T23:36:44.811Z,61.23
2019-02-25T23:39:17.144Z,61.23
2019-02-25T23:41:48.663Z,61.26
2019-02-25T23:44:21.743Z,61.10
2019-02-25T23:46:55.384Z,61.15
2019-02-25T23:49:27.335Z,61.38
2019-02-25T23:51:56.350Z,61.70
2019-02-25T23:54:28.034Z,61.72
2019-02-25T23:57:02.014Z,61.69
2019-02-25T23:59:32.401Z,61.65
